sensor_id;sensor_type;location;lat;lon;timestamp;P1;durP1;ratioP1;P2;durP2;ratioP2
17658;SDS011;8948;51.534;8.262;2023-04-25T00:00:53;31.67;;;10.93;;
17658;SDS011;8948;51.534;8.262;2023-04-25T00:05:53;27.27;;;9.50;;
17658;SDS011;8948;51.534;8.262;2023-04-25T00:10:57;22.57;;;9.40;;
17658;SDS011;8948;51.534;8.262;2023-04-25T00:15:58;31.43;;;10.60;;
17658;SDS011;8948;51.534;8.262;2023-04-25T00:21:00;24.50;;;9.27;;
17658;SDS011;8948;51.534;8.262;2023-04-25T00:26:00;39.30;;;8.80;;
17658;SDS011;8948;51.534;8.262;2023-04-25T00:31:01;17.40;;;7.63;;
17658;SDS011;8948;51.534;8.262;2023-04-25T00:36:01;25.77;;;8.70;;
17658;SDS011;8948;51.534;8.262;2023-04-25T00:41:02;27.57;;;7.80;;
17658;SDS011;8948;51.534;8.262;2023-04-25T00:46:03;21.67;;;9.13;;
17658;SDS011;8948;51.534;8.262;2023-04-25T00:51:03;28.13;;;9.13;;
17658;SDS011;8948;51.534;8.262;2023-04-25T00:56:04;30.97;;;8.80;;
17658;SDS011;8948;51.534;8.262;2023-04-25T01:01:05;27.13;;;10.60;;
17658;SDS011;8948;51.534;8.262;2023-04-25T01:06:07;25.50;;;8.37;;
17658;SDS011;8948;51.534;8.262;2023-04-25T01:11:09;24.30;;;8.23;;
17658;SDS011;8948;51.534;8.262;2023-04-25T01:16:09;30.53;;;8.93;;
17658;SDS011;8948;51.534;8.262;2023-04-25T01:21:10;21.50;;;8.53;;
17658;SDS011;8948;51.534;8.262;2023-04-25T01:26:12;21.23;;;8.30;;
17658;SDS011;8948;51.534;8.262;2023-04-25T01:31:13;24.80;;;10.60;;
17658;SDS011;8948;51.534;8.262;2023-04-25T01:36:15;23.30;;;9.43;;
17658;SDS011;8948;51.534;8.262;2023-04-25T01:41:16;20.83;;;10.90;;
17658;SDS011;8948;51.534;8.262;2023-04-25T01:46:17;21.53;;;9.93;;
17658;SDS011;8948;51.534;8.262;2023-04-25T01:51:18;25.13;;;9.90;;
17658;SDS011;8948;51.534;8.262;2023-04-25T01:56:19;22.33;;;10.13;;
17658;SDS011;8948;51.534;8.262;2023-04-25T02:01:20;21.90;;;10.40;;
17658;SDS011;8948;51.534;8.262;2023-04-25T02:06:20;28.77;;;11.60;;
17658;SDS011;8948;51.534;8.262;2023-04-25T02:11:21;24.10;;;10.97;;
17658;SDS011;8948;51.534;8.262;2023-04-25T02:16:22;27.13;;;12.60;;
17658;SDS011;8948;51.534;8.262;2023-04-25T02:21:23;30.03;;;14.33;;
17658;SDS011;8948;51.534;8.262;2023-04-25T02:26:24;32.13;;;14.67;;
17658;SDS011;8948;51.534;8.262;2023-04-25T02:31:24;31.93;;;14.73;;
17658;SDS011;8948;51.534;8.262;2023-04-25T02:36:25;30.17;;;14.67;;
17658;SDS011;8948;51.534;8.262;2023-04-25T02:41:26;36.70;;;15.93;;
17658;SDS011;8948;51.534;8.262;2023-04-25T02:46:27;31.03;;;13.67;;
17658;SDS011;8948;51.534;8.262;2023-04-25T02:51:27;26.77;;;15.17;;
17658;SDS011;8948;51.534;8.262;2023-04-25T02:56:28;28.50;;;14.37;;
17658;SDS011;8948;51.534;8.262;2023-04-25T03:01:29;30.37;;;14.80;;
17658;SDS011;8948;51.534;8.262;2023-04-25T03:06:29;25.90;;;12.60;;
17658;SDS011;8948;51.534;8.262;2023-04-25T03:11:30;25.17;;;12.20;;
17658;SDS011;8948;51.534;8.262;2023-04-25T03:16:31;27.30;;;15.80;;
17658;SDS011;8948;51.534;8.262;2023-04-25T03:21:32;28.53;;;15.90;;
17658;SDS011;8948;51.534;8.262;2023-04-25T03:26:34;29.53;;;16.60;;
17658;SDS011;8948;51.534;8.262;2023-04-25T03:31:35;25.73;;;15.60;;
17658;SDS011;8948;51.534;8.262;2023-04-25T03:36:35;33.70;;;17.67;;
17658;SDS011;8948;51.534;8.262;2023-04-25T03:41:36;22.67;;;12.13;;
17658;SDS011;8948;51.534;8.262;2023-04-25T03:46:36;27.53;;;13.53;;
17658;SDS011;8948;51.534;8.262;2023-04-25T03:51:37;36.10;;;17.07;;
17658;SDS011;8948;51.534;8.262;2023-04-25T03:56:38;35.17;;;17.57;;
17658;SDS011;8948;51.534;8.262;2023-04-25T04:01:39;31.63;;;15.17;;
17658;SDS011;8948;51.534;8.262;2023-04-25T04:06:40;31.37;;;15.37;;
17658;SDS011;8948;51.534;8.262;2023-04-25T04:11:40;37.07;;;13.63;;
17658;SDS011;8948;51.534;8.262;2023-04-25T04:16:41;32.77;;;14.10;;
17658;SDS011;8948;51.534;8.262;2023-04-25T04:21:42;32.90;;;12.67;;
17658;SDS011;8948;51.534;8.262;2023-04-25T04:26:42;37.00;;;12.77;;
17658;SDS011;8948;51.534;8.262;2023-04-25T04:31:44;37.60;;;12.13;;
17658;SDS011;8948;51.534;8.262;2023-04-25T04:36:45;38.03;;;11.97;;
17658;SDS011;8948;51.534;8.262;2023-04-25T04:41:46;31.03;;;11.07;;
17658;SDS011;8948;51.534;8.262;2023-04-25T04:46:47;38.37;;;11.50;;
17658;SDS011;8948;51.534;8.262;2023-04-25T04:51:48;28.10;;;10.50;;
17658;SDS011;8948;51.534;8.262;2023-04-25T04:56:49;23.37;;;9.80;;
17658;SDS011;8948;51.534;8.262;2023-04-25T05:01:52;30.13;;;10.40;;
17658;SDS011;8948;51.534;8.262;2023-04-25T05:06:53;40.20;;;9.97;;
17658;SDS011;8948;51.534;8.262;2023-04-25T05:11:53;39.90;;;9.33;;
17658;SDS011;8948;51.534;8.262;2023-04-25T05:16:54;35.30;;;8.37;;
17658;SDS011;8948;51.534;8.262;2023-04-25T05:21:54;28.60;;;7.73;;
17658;SDS011;8948;51.534;8.262;2023-04-25T05:26:55;27.03;;;8.70;;
17658;SDS011;8948;51.534;8.262;2023-04-25T05:31:55;30.27;;;8.70;;
17658;SDS011;8948;51.534;8.262;2023-04-25T05:36:56;25.93;;;9.37;;
17658;SDS011;8948;51.534;8.262;2023-04-25T05:41:56;29.37;;;8.80;;
17658;SDS011;8948;51.534;8.262;2023-04-25T05:46:57;29.80;;;9.30;;
17658;SDS011;8948;51.534;8.262;2023-04-25T05:51:57;28.33;;;8.40;;
17658;SDS011;8948;51.534;8.262;2023-04-25T05:56:58;33.67;;;8.73;;
17658;SDS011;8948;51.534;8.262;2023-04-25T06:01:59;40.30;;;9.43;;
17658;SDS011;8948;51.534;8.262;2023-04-25T06:07:00;28.40;;;8.07;;
17658;SDS011;8948;51.534;8.262;2023-04-25T06:12:01;29.80;;;7.77;;
17658;SDS011;8948;51.534;8.262;2023-04-25T06:17:02;41.87;;;8.20;;
17658;SDS011;8948;51.534;8.262;2023-04-25T06:22:08;30.43;;;8.57;;
17658;SDS011;8948;51.534;8.262;2023-04-25T06:27:08;24.37;;;7.20;;
17658;SDS011;8948;51.534;8.262;2023-04-25T06:32:09;28.97;;;7.33;;
17658;SDS011;8948;51.534;8.262;2023-04-25T06:37:09;35.07;;;7.30;;
17658;SDS011;8948;51.534;8.262;2023-04-25T06:42:10;28.50;;;6.60;;
17658;SDS011;8948;51.534;8.262;2023-04-25T06:47:10;25.80;;;6.40;;
17658;SDS011;8948;51.534;8.262;2023-04-25T06:52:11;24.13;;;5.77;;
17658;SDS011;8948;51.534;8.262;2023-04-25T06:57:12;23.63;;;6.63;;
17658;SDS011;8948;51.534;8.262;2023-04-25T07:02:12;28.07;;;6.13;;
17658;SDS011;8948;51.534;8.262;2023-04-25T07:07:13;25.77;;;6.23;;
17658;SDS011;8948;51.534;8.262;2023-04-25T07:12:13;21.87;;;5.60;;
17658;SDS011;8948;51.534;8.262;2023-04-25T07:17:14;35.60;;;6.57;;
17658;SDS011;8948;51.534;8.262;2023-04-25T07:22:15;36.50;;;6.33;;
17658;SDS011;8948;51.534;8.262;2023-04-25T07:27:15;26.17;;;5.50;;
17658;SDS011;8948;51.534;8.262;2023-04-25T07:32:16;19.90;;;4.40;;
17658;SDS011;8948;51.534;8.262;2023-04-25T07:37:16;20.10;;;4.67;;
17658;SDS011;8948;51.534;8.262;2023-04-25T07:42:18;26.53;;;5.10;;
17658;SDS011;8948;51.534;8.262;2023-04-25T07:47:19;22.47;;;4.90;;
17658;SDS011;8948;51.534;8.262;2023-04-25T07:52:19;20.93;;;4.60;;
17658;SDS011;8948;51.534;8.262;2023-04-25T07:57:21;25.47;;;5.07;;
17658;SDS011;8948;51.534;8.262;2023-04-25T08:02:21;28.40;;;4.70;;
17658;SDS011;8948;51.534;8.262;2023-04-25T08:07:22;23.47;;;4.67;;
17658;SDS011;8948;51.534;8.262;2023-04-25T08:12:23;18.33;;;3.83;;
17658;SDS011;8948;51.534;8.262;2023-04-25T08:17:23;14.40;;;3.67;;
17658;SDS011;8948;51.534;8.262;2023-04-25T08:22:24;20.17;;;4.57;;
17658;SDS011;8948;51.534;8.262;2023-04-25T08:27:24;22.20;;;4.63;;
17658;SDS011;8948;51.534;8.262;2023-04-25T08:32:25;24.47;;;4.93;;
17658;SDS011;8948;51.534;8.262;2023-04-25T08:37:25;21.97;;;4.47;;
17658;SDS011;8948;51.534;8.262;2023-04-25T08:42:26;15.87;;;3.40;;
17658;SDS011;8948;51.534;8.262;2023-04-25T08:47:28;13.90;;;3.07;;
17658;SDS011;8948;51.534;8.262;2023-04-25T08:52:35;13.27;;;3.37;;
17658;SDS011;8948;51.534;8.262;2023-04-25T08:57:38;12.07;;;3.63;;
17658;SDS011;8948;51.534;8.262;2023-04-25T09:02:42;17.17;;;2.97;;
17658;SDS011;8948;51.534;8.262;2023-04-25T09:07:43;14.00;;;3.43;;
17658;SDS011;8948;51.534;8.262;2023-04-25T09:12:44;14.90;;;3.23;;
17658;SDS011;8948;51.534;8.262;2023-04-25T09:17:44;15.87;;;3.30;;
17658;SDS011;8948;51.534;8.262;2023-04-25T09:22:45;16.97;;;3.50;;
17658;SDS011;8948;51.534;8.262;2023-04-25T09:27:52;17.37;;;3.40;;
17658;SDS011;8948;51.534;8.262;2023-04-25T09:32:56;17.53;;;3.20;;
17658;SDS011;8948;51.534;8.262;2023-04-25T09:37:58;18.03;;;3.70;;
17658;SDS011;8948;51.534;8.262;2023-04-25T09:42:58;14.93;;;3.33;;
17658;SDS011;8948;51.534;8.262;2023-04-25T09:48:03;20.00;;;3.70;;
17658;SDS011;8948;51.534;8.262;2023-04-25T09:53:06;15.27;;;3.20;;
17658;SDS011;8948;51.534;8.262;2023-04-25T09:58:07;13.97;;;3.30;;
17658;SDS011;8948;51.534;8.262;2023-04-25T10:03:10;17.03;;;3.23;;
17658;SDS011;8948;51.534;8.262;2023-04-25T10:08:12;13.30;;;2.97;;
17658;SDS011;8948;51.534;8.262;2023-04-25T10:13:13;12.07;;;2.90;;
17658;SDS011;8948;51.534;8.262;2023-04-25T10:18:14;13.07;;;2.90;;
17658;SDS011;8948;51.534;8.262;2023-04-25T10:23:18;14.70;;;3.43;;
17658;SDS011;8948;51.534;8.262;2023-04-25T10:28:20;13.77;;;3.23;;
17658;SDS011;8948;51.534;8.262;2023-04-25T10:33:21;17.57;;;3.07;;
17658;SDS011;8948;51.534;8.262;2023-04-25T10:38:32;11.47;;;2.87;;
17658;SDS011;8948;51.534;8.262;2023-04-25T10:43:33;9.53;;;2.63;;
17658;SDS011;8948;51.534;8.262;2023-04-25T10:48:51;11.87;;;2.70;;
17658;SDS011;8948;51.534;8.262;2023-04-25T10:53:57;14.77;;;2.80;;
17658;SDS011;8948;51.534;8.262;2023-04-25T10:59:12;10.43;;;2.70;;
17658;SDS011;8948;51.534;8.262;2023-04-25T11:09:30;13.77;;;2.70;;
17658;SDS011;8948;51.534;8.262;2023-04-25T11:14:33;12.67;;;2.53;;
17658;SDS011;8948;51.534;8.262;2023-04-25T11:19:34;15.07;;;2.90;;
17658;SDS011;8948;51.534;8.262;2023-04-25T11:24:35;11.07;;;2.57;;
17658;SDS011;8948;51.534;8.262;2023-04-25T11:29:36;14.60;;;2.97;;
17658;SDS011;8948;51.534;8.262;2023-04-25T11:34:37;8.57;;;2.67;;
17658;SDS011;8948;51.534;8.262;2023-04-25T11:39:37;19.83;;;3.07;;
17658;SDS011;8948;51.534;8.262;2023-04-25T11:44:39;8.60;;;2.70;;
17658;SDS011;8948;51.534;8.262;2023-04-25T11:49:40;9.50;;;2.37;;
17658;SDS011;8948;51.534;8.262;2023-04-25T11:54:41;9.97;;;2.70;;
17658;SDS011;8948;51.534;8.262;2023-04-25T11:59:44;9.17;;;2.77;;
17658;SDS011;8948;51.534;8.262;2023-04-25T12:04:45;8.90;;;2.97;;
17658;SDS011;8948;51.534;8.262;2023-04-25T12:09:50;8.43;;;2.80;;
17658;SDS011;8948;51.534;8.262;2023-04-25T12:14:51;7.10;;;2.03;;
17658;SDS011;8948;51.534;8.262;2023-04-25T12:19:52;9.70;;;2.40;;
17658;SDS011;8948;51.534;8.262;2023-04-25T12:24:52;8.27;;;2.40;;
17658;SDS011;8948;51.534;8.262;2023-04-25T12:29:54;6.77;;;2.07;;
17658;SDS011;8948;51.534;8.262;2023-04-25T12:34:55;7.73;;;2.30;;
17658;SDS011;8948;51.534;8.262;2023-04-25T12:39:56;11.07;;;2.10;;
17658;SDS011;8948;51.534;8.262;2023-04-25T12:44:57;8.07;;;2.00;;
17658;SDS011;8948;51.534;8.262;2023-04-25T12:49:57;6.53;;;1.90;;
17658;SDS011;8948;51.534;8.262;2023-04-25T12:54:58;4.93;;;1.60;;
17658;SDS011;8948;51.534;8.262;2023-04-25T12:59:58;3.73;;;1.63;;
17658;SDS011;8948;51.534;8.262;2023-04-25T13:04:59;12.43;;;1.87;;
17658;SDS011;8948;51.534;8.262;2023-04-25T13:09:59;5.20;;;1.30;;
17658;SDS011;8948;51.534;8.262;2023-04-25T13:15:02;7.43;;;1.63;;
17658;SDS011;8948;51.534;8.262;2023-04-25T13:20:03;4.57;;;1.40;;
17658;SDS011;8948;51.534;8.262;2023-04-25T13:25:08;5.33;;;1.83;;
17658;SDS011;8948;51.534;8.262;2023-04-25T13:30:09;4.90;;;1.70;;
17658;SDS011;8948;51.534;8.262;2023-04-25T13:35:11;7.67;;;1.90;;
17658;SDS011;8948;51.534;8.262;2023-04-25T13:40:12;11.43;;;2.30;;
17658;SDS011;8948;51.534;8.262;2023-04-25T13:45:13;6.37;;;1.70;;
17658;SDS011;8948;51.534;8.262;2023-04-25T13:50:13;3.53;;;1.60;;
17658;SDS011;8948;51.534;8.262;2023-04-25T13:55:15;4.67;;;1.50;;
17658;SDS011;8948;51.534;8.262;2023-04-25T14:00:16;4.57;;;1.70;;
17658;SDS011;8948;51.534;8.262;2023-04-25T14:05:17;9.10;;;2.00;;
17658;SDS011;8948;51.534;8.262;2023-04-25T14:10:18;9.47;;;2.13;;
17658;SDS011;8948;51.534;8.262;2023-04-25T14:15:18;11.30;;;2.30;;
17658;SDS011;8948;51.534;8.262;2023-04-25T14:20:19;7.00;;;2.30;;
17658;SDS011;8948;51.534;8.262;2023-04-25T14:25:21;5.37;;;1.83;;
17658;SDS011;8948;51.534;8.262;2023-04-25T14:30:22;6.07;;;1.90;;
17658;SDS011;8948;51.534;8.262;2023-04-25T14:35:22;7.77;;;2.60;;
17658;SDS011;8948;51.534;8.262;2023-04-25T14:40:23;8.07;;;2.10;;
17658;SDS011;8948;51.534;8.262;2023-04-25T14:45:24;7.13;;;2.10;;
17658;SDS011;8948;51.534;8.262;2023-04-25T14:50:24;8.63;;;2.30;;
17658;SDS011;8948;51.534;8.262;2023-04-25T14:55:25;7.37;;;2.00;;
17658;SDS011;8948;51.534;8.262;2023-04-25T15:00:28;6.57;;;1.63;;
17658;SDS011;8948;51.534;8.262;2023-04-25T15:05:30;6.67;;;1.70;;
17658;SDS011;8948;51.534;8.262;2023-04-25T15:10:32;5.50;;;2.10;;
17658;SDS011;8948;51.534;8.262;2023-04-25T15:15:33;7.40;;;2.00;;
17658;SDS011;8948;51.534;8.262;2023-04-25T15:20:33;4.57;;;1.60;;
17658;SDS011;8948;51.534;8.262;2023-04-25T15:25:34;5.40;;;2.23;;
17658;SDS011;8948;51.534;8.262;2023-04-25T15:30:35;7.60;;;2.07;;
17658;SDS011;8948;51.534;8.262;2023-04-25T15:35:35;5.77;;;2.37;;
17658;SDS011;8948;51.534;8.262;2023-04-25T15:40:36;10.43;;;2.10;;
17658;SDS011;8948;51.534;8.262;2023-04-25T15:45:37;10.47;;;2.37;;
17658;SDS011;8948;51.534;8.262;2023-04-25T15:50:37;11.07;;;2.53;;
17658;SDS011;8948;51.534;8.262;2023-04-25T15:55:38;5.47;;;2.30;;
17658;SDS011;8948;51.534;8.262;2023-04-25T16:00:39;8.43;;;1.97;;
17658;SDS011;8948;51.534;8.262;2023-04-25T16:05:39;7.50;;;1.90;;
17658;SDS011;8948;51.534;8.262;2023-04-25T16:10:40;8.00;;;1.87;;
17658;SDS011;8948;51.534;8.262;2023-04-25T16:15:41;6.93;;;2.63;;
17658;SDS011;8948;51.534;8.262;2023-04-25T16:20:42;6.30;;;1.83;;
17658;SDS011;8948;51.534;8.262;2023-04-25T16:25:43;8.23;;;2.10;;
17658;SDS011;8948;51.534;8.262;2023-04-25T16:30:44;4.60;;;1.50;;
17658;SDS011;8948;51.534;8.262;2023-04-25T16:35:45;5.20;;;1.33;;
17658;SDS011;8948;51.534;8.262;2023-04-25T16:40:46;4.07;;;1.37;;
17658;SDS011;8948;51.534;8.262;2023-04-25T16:45:47;7.17;;;1.90;;
17658;SDS011;8948;51.534;8.262;2023-04-25T16:50:47;10.20;;;1.73;;
17658;SDS011;8948;51.534;8.262;2023-04-25T16:55:48;5.40;;;1.83;;
17658;SDS011;8948;51.534;8.262;2023-04-25T17:00:48;11.53;;;2.37;;
17658;SDS011;8948;51.534;8.262;2023-04-25T17:05:49;8.87;;;1.97;;
17658;SDS011;8948;51.534;8.262;2023-04-25T17:10:50;7.03;;;1.90;;
17658;SDS011;8948;51.534;8.262;2023-04-25T17:15:51;5.03;;;2.10;;
17658;SDS011;8948;51.534;8.262;2023-04-25T17:20:51;4.27;;;2.00;;
17658;SDS011;8948;51.534;8.262;2023-04-25T17:25:52;6.23;;;1.90;;
17658;SDS011;8948;51.534;8.262;2023-04-25T17:30:53;6.47;;;2.37;;
17658;SDS011;8948;51.534;8.262;2023-04-25T17:35:53;6.40;;;2.33;;
17658;SDS011;8948;51.534;8.262;2023-04-25T17:40:54;6.57;;;2.17;;
17658;SDS011;8948;51.534;8.262;2023-04-25T17:45:55;10.60;;;2.20;;
17658;SDS011;8948;51.534;8.262;2023-04-25T17:50:56;7.77;;;2.10;;
17658;SDS011;8948;51.534;8.262;2023-04-25T17:55:57;6.37;;;2.20;;
17658;SDS011;8948;51.534;8.262;2023-04-25T18:00:57;5.67;;;2.33;;
17658;SDS011;8948;51.534;8.262;2023-04-25T18:05:58;7.83;;;2.53;;
17658;SDS011;8948;51.534;8.262;2023-04-25T18:10:59;13.53;;;2.63;;
17658;SDS011;8948;51.534;8.262;2023-04-25T18:15:59;9.87;;;2.53;;
17658;SDS011;8948;51.534;8.262;2023-04-25T18:21:00;6.53;;;2.30;;
17658;SDS011;8948;51.534;8.262;2023-04-25T18:26:03;7.27;;;2.07;;
17658;SDS011;8948;51.534;8.262;2023-04-25T18:31:04;9.50;;;2.17;;
17658;SDS011;8948;51.534;8.262;2023-04-25T18:36:05;6.13;;;2.40;;
17658;SDS011;8948;51.534;8.262;2023-04-25T18:41:06;9.80;;;2.50;;
17658;SDS011;8948;51.534;8.262;2023-04-25T18:46:06;11.50;;;2.63;;
17658;SDS011;8948;51.534;8.262;2023-04-25T18:51:07;7.40;;;2.20;;
17658;SDS011;8948;51.534;8.262;2023-04-25T18:56:08;6.17;;;2.10;;
17658;SDS011;8948;51.534;8.262;2023-04-25T19:01:08;9.67;;;2.70;;
17658;SDS011;8948;51.534;8.262;2023-04-25T19:06:09;8.40;;;1.90;;
17658;SDS011;8948;51.534;8.262;2023-04-25T19:11:10;6.50;;;2.10;;
17658;SDS011;8948;51.534;8.262;2023-04-25T19:16:10;7.83;;;1.97;;
17658;SDS011;8948;51.534;8.262;2023-04-25T19:21:11;4.60;;;2.00;;
17658;SDS011;8948;51.534;8.262;2023-04-25T19:26:12;15.47;;;2.57;;
17658;SDS011;8948;51.534;8.262;2023-04-25T19:31:13;7.97;;;2.20;;
17658;SDS011;8948;51.534;8.262;2023-04-25T19:36:13;10.87;;;2.90;;
17658;SDS011;8948;51.534;8.262;2023-04-25T19:41:14;6.13;;;2.00;;
17658;SDS011;8948;51.534;8.262;2023-04-25T19:46:15;9.17;;;2.13;;
17658;SDS011;8948;51.534;8.262;2023-04-25T19:51:15;9.60;;;2.23;;
17658;SDS011;8948;51.534;8.262;2023-04-25T19:56:16;8.07;;;2.10;;
17658;SDS011;8948;51.534;8.262;2023-04-25T20:01:17;7.53;;;1.80;;
17658;SDS011;8948;51.534;8.262;2023-04-25T20:06:20;6.80;;;2.10;;
17658;SDS011;8948;51.534;8.262;2023-04-25T20:11:21;6.70;;;2.57;;
17658;SDS011;8948;51.534;8.262;2023-04-25T20:16:22;9.13;;;2.00;;
17658;SDS011;8948;51.534;8.262;2023-04-25T20:21:22;5.27;;;2.63;;
17658;SDS011;8948;51.534;8.262;2023-04-25T20:26:23;7.43;;;2.17;;
17658;SDS011;8948;51.534;8.262;2023-04-25T20:31:24;7.43;;;2.37;;
17658;SDS011;8948;51.534;8.262;2023-04-25T20:36:25;4.60;;;2.00;;
17658;SDS011;8948;51.534;8.262;2023-04-25T20:41:26;8.17;;;2.50;;
17658;SDS011;8948;51.534;8.262;2023-04-25T20:46:27;12.77;;;2.63;;
17658;SDS011;8948;51.534;8.262;2023-04-25T20:51:33;8.53;;;2.07;;
17658;SDS011;8948;51.534;8.262;2023-04-25T20:56:35;4.63;;;2.23;;
17658;SDS011;8948;51.534;8.262;2023-04-25T21:01:36;19.80;;;2.93;;
17658;SDS011;8948;51.534;8.262;2023-04-25T21:06:37;10.10;;;2.23;;
17658;SDS011;8948;51.534;8.262;2023-04-25T21:11:38;7.10;;;2.17;;
17658;SDS011;8948;51.534;8.262;2023-04-25T21:16:38;10.53;;;2.80;;
17658;SDS011;8948;51.534;8.262;2023-04-25T21:21:41;9.07;;;2.93;;
17658;SDS011;8948;51.534;8.262;2023-04-25T21:26:41;12.83;;;2.70;;
17658;SDS011;8948;51.534;8.262;2023-04-25T21:31:42;6.93;;;2.37;;
17658;SDS011;8948;51.534;8.262;2023-04-25T21:36:45;5.27;;;2.30;;
17658;SDS011;8948;51.534;8.262;2023-04-25T21:41:45;6.37;;;2.33;;
17658;SDS011;8948;51.534;8.262;2023-04-25T21:46:47;9.30;;;2.30;;
17658;SDS011;8948;51.534;8.262;2023-04-25T21:51:47;10.00;;;2.63;;
17658;SDS011;8948;51.534;8.262;2023-04-25T21:56:48;10.53;;;2.70;;
17658;SDS011;8948;51.534;8.262;2023-04-25T22:01:48;11.97;;;2.60;;
17658;SDS011;8948;51.534;8.262;2023-04-25T22:06:49;5.70;;;2.20;;
17658;SDS011;8948;51.534;8.262;2023-04-25T22:11:50;14.27;;;2.30;;
17658;SDS011;8948;51.534;8.262;2023-04-25T22:16:52;16.53;;;2.73;;
17658;SDS011;8948;51.534;8.262;2023-04-25T22:21:55;7.57;;;2.77;;
17658;SDS011;8948;51.534;8.262;2023-04-25T22:26:57;7.87;;;3.00;;
17658;SDS011;8948;51.534;8.262;2023-04-25T22:31:58;11.93;;;2.80;;
17658;SDS011;8948;51.534;8.262;2023-04-25T22:36:58;11.27;;;2.50;;
17658;SDS011;8948;51.534;8.262;2023-04-25T22:41:59;7.10;;;3.07;;
17658;SDS011;8948;51.534;8.262;2023-04-25T22:46:59;8.30;;;3.03;;
17658;SDS011;8948;51.534;8.262;2023-04-25T22:52:00;9.17;;;2.87;;
17658;SDS011;8948;51.534;8.262;2023-04-25T22:57:05;19.97;;;3.50;;
17658;SDS011;8948;51.534;8.262;2023-04-25T23:02:06;11.23;;;2.53;;
17658;SDS011;8948;51.534;8.262;2023-04-25T23:07:08;15.40;;;3.00;;
17658;SDS011;8948;51.534;8.262;2023-04-25T23:12:09;12.53;;;3.17;;
17658;SDS011;8948;51.534;8.262;2023-04-25T23:17:10;10.87;;;3.00;;
17658;SDS011;8948;51.534;8.262;2023-04-25T23:22:11;9.83;;;2.77;;
17658;SDS011;8948;51.534;8.262;2023-04-25T23:27:12;10.57;;;3.60;;
17658;SDS011;8948;51.534;8.262;2023-04-25T23:32:12;9.20;;;2.67;;
17658;SDS011;8948;51.534;8.262;2023-04-25T23:37:13;8.20;;;2.90;;
17658;SDS011;8948;51.534;8.262;2023-04-25T23:42:13;9.77;;;2.47;;
17658;SDS011;8948;51.534;8.262;2023-04-25T23:47:14;6.33;;;2.80;;
17658;SDS011;8948;51.534;8.262;2023-04-25T23:52:16;10.97;;;2.90;;
17658;SDS011;8948;51.534;8.262;2023-04-25T23:57:17;8.50;;;2.70;;
